createdAt,value
2023-02-26T00:00:41.300Z,8.15
2023-02-26T00:03:08.707Z,6.20
2023-02-26T00:05:36.459Z,7.28
2023-02-26T00:08:06.141Z,10.35
2023-02-26T00:10:35.132Z,5.00
2023-02-26T00:13:03.042Z,6.65
2023-02-26T00:15:31.153Z,7.72
2023-02-26T00:18:04.468Z,7.97
2023-02-26T00:20:32.631Z,7.88
2023-02-26T00:23:00.661Z,10.68
2023-02-26T00:25:28.025Z,5.70
2023-02-26T00:27:57.663Z,3.78
2023-02-26T00:30:25.477Z,8.60
2023-02-26T00:32:53.336Z,6.72
2023-02-26T00:35:21.433Z,5.82
2023-02-26T00:38:02.674Z,5.32
2023-02-26T00:40:43.338Z,6.57
2023-02-26T00:43:18.132Z,6.78
2023-02-26T00:45:55.262Z,4.22
2023-02-26T00:48:40.656Z,5.88
2023-02-26T00:51:27.878Z,2.65
2023-02-26T00:54:04.230Z,4.85
2023-02-26T00:56:31.851Z,5.63
2023-02-26T00:59:02.251Z,2.72
2023-02-26T01:01:29.881Z,3.65
2023-02-26T01:03:57.915Z,6.07
2023-02-26T01:06:29.137Z,4.55
2023-02-26T01:09:05.304Z,5.45
2023-02-26T01:11:34.514Z,5.20
2023-02-26T01:14:04.572Z,6.25
2023-02-26T01:16:41.999Z,8.13
2023-02-26T01:19:20.559Z,5.57
2023-02-26T01:22:00.138Z,5.00
2023-02-26T01:24:29.991Z,2.78
2023-02-26T01:26:57.646Z,4.22
2023-02-26T01:29:26.911Z,3.53
2023-02-26T01:32:01.074Z,4.03
2023-02-26T01:34:35.706Z,2.72
2023-02-26T01:37:12.378Z,2.83
2023-02-26T01:39:44.630Z,2.95
2023-02-26T01:42:18.151Z,5.10
2023-02-26T01:44:59.033Z,2.30
2023-02-26T01:47:35.602Z,5.18
2023-02-26T01:50:13.116Z,4.32
2023-02-26T01:53:21.169Z,3.33
2023-02-26T01:55:55.543Z,4.85
2023-02-26T01:58:24.343Z,4.35
2023-02-26T02:00:53.019Z,2.47
2023-02-26T02:03:21.613Z,3.85
2023-02-26T02:05:52.757Z,5.05
2023-02-26T02:08:21.342Z,4.10
2023-02-26T02:10:51.610Z,2.05
2023-02-26T02:13:35.507Z,5.22
2023-02-26T02:16:17.066Z,2.72
2023-02-26T02:18:54.426Z,3.40
2023-02-26T02:21:59.890Z,4.75
2023-02-26T02:24:40.216Z,1.95
2023-02-26T02:27:15.169Z,3.10
2023-02-26T02:30:02.832Z,1.70
2023-02-26T02:32:36.871Z,0.80
2023-02-26T02:35:13.615Z,2.22
2023-02-26T02:37:46.890Z,2.17
2023-02-26T02:40:19.085Z,2.47
2023-02-26T02:42:49.865Z,2.38
2023-02-26T02:45:22.766Z,1.88
2023-02-26T02:47:59.310Z,2.78
2023-02-26T02:50:31.040Z,3.35
2023-02-26T02:53:04.984Z,2.65
2023-02-26T02:55:35.631Z,3.00
2023-02-26T02:58:07.005Z,2.97
2023-02-26T03:00:41.342Z,1.80
2023-02-26T03:03:19.343Z,2.63
2023-02-26T03:05:46.833Z,1.90
2023-02-26T03:08:17.704Z,3.10
2023-02-26T03:10:46.972Z,1.35
2023-02-26T03:13:17.613Z,3.30
2023-02-26T03:16:00.561Z,2.92
2023-02-26T03:18:39.225Z,4.03
2023-02-26T03:21:12.198Z,3.78
2023-02-26T03:23:46.631Z,4.45
2023-02-26T03:26:19.425Z,4.00
2023-02-26T03:28:54.097Z,3.50
2023-02-26T03:31:29.150Z,3.40
2023-02-26T03:34:03.111Z,2.20
2023-02-26T03:36:36.979Z,3.28
2023-02-26T03:39:27.082Z,3.15
2023-02-26T03:41:59.734Z,3.22
2023-02-26T03:44:33.918Z,2.15
2023-02-26T03:47:04.775Z,4.00
2023-02-26T03:49:38.878Z,3.53
2023-02-26T03:52:07.468Z,3.55
2023-02-26T03:54:52.032Z,4.35
2023-02-26T03:57:38.259Z,1.98
2023-02-26T04:00:31.796Z,3.05
2023-02-26T04:03:02.363Z,4.72
2023-02-26T04:05:35.265Z,4.10
2023-02-26T04:08:03.339Z,5.00
2023-02-26T04:10:36.682Z,2.58
2023-02-26T04:13:04.225Z,2.67
2023-02-26T04:15:31.994Z,3.53
2023-02-26T04:17:59.502Z,3.42
2023-02-26T04:20:28.469Z,3.60
2023-02-26T04:22:57.332Z,5.03
2023-02-26T04:25:25.016Z,3.95
2023-02-26T04:27:53.676Z,3.55
2023-02-26T04:30:21.086Z,3.50
2023-02-26T04:32:48.491Z,2.78
2023-02-26T04:35:16.443Z,2.13
2023-02-26T04:37:43.928Z,1.73
2023-02-26T04:40:13.953Z,2.15
2023-02-26T04:42:41.279Z,2.90
2023-02-26T04:45:09.217Z,1.38
2023-02-26T04:47:39.430Z,1.30
2023-02-26T04:50:08.395Z,1.73
2023-02-26T04:52:35.992Z,1.17
2023-02-26T04:55:04.312Z,2.35
2023-02-26T04:57:33.331Z,1.45
2023-02-26T05:00:00.731Z,1.45
2023-02-26T05:02:32.539Z,1.33
2023-02-26T05:04:59.843Z,1.98
2023-02-26T05:07:27.208Z,1.17
2023-02-26T05:09:54.507Z,1.52
2023-02-26T05:12:22.120Z,0.57
2023-02-26T05:14:50.805Z,0.65
2023-02-26T05:17:18.073Z,0.88
2023-02-26T05:19:45.476Z,0.90
2023-02-26T05:22:12.864Z,0.50
2023-02-26T05:24:41.245Z,0.80
2023-02-26T05:27:08.614Z,0.73
2023-02-26T05:29:41.176Z,0.85
2023-02-26T05:32:10.610Z,0.60
2023-02-26T05:34:38.287Z,0.50
2023-02-26T05:37:05.699Z,0.63
2023-02-26T05:39:33.161Z,0.65
2023-02-26T05:42:00.689Z,0.90
2023-02-26T05:44:46.371Z,0.50
2023-02-26T05:47:15.059Z,0.65
2023-02-26T05:49:42.495Z,0.60
2023-02-26T05:52:09.703Z,0.30
2023-02-26T05:54:37.257Z,0.20
2023-02-26T05:57:04.459Z,0.68
2023-02-26T05:59:31.709Z,0.88
2023-02-26T06:01:59.137Z,0.52
2023-02-26T06:04:28.086Z,0.80
2023-02-26T06:06:55.505Z,0.73
2023-02-26T06:09:22.699Z,0.47
2023-02-26T06:11:50.299Z,0.77
2023-02-26T06:14:17.865Z,0.63
2023-02-26T06:16:45.201Z,0.73
2023-02-26T06:19:12.721Z,0.50
2023-02-26T06:21:41.490Z,0.70
2023-02-26T06:24:08.971Z,1.25
2023-02-26T06:26:39.149Z,1.23
2023-02-26T06:29:06.580Z,0.77
2023-02-26T06:31:33.880Z,1.13
2023-02-26T06:34:01.259Z,0.77
2023-02-26T06:36:28.726Z,0.77
2023-02-26T06:38:57.369Z,0.75
2023-02-26T06:41:24.581Z,1.08
2023-02-26T06:43:51.968Z,0.55
2023-02-26T06:46:19.295Z,1.15
2023-02-26T06:48:46.773Z,0.50
2023-02-26T06:51:13.976Z,1.33
2023-02-26T06:53:41.460Z,1.05
2023-02-26T06:56:10.089Z,0.77
2023-02-26T06:58:37.588Z,0.35
2023-02-26T07:01:05.537Z,1.73
2023-02-26T07:03:32.906Z,1.55
2023-02-26T07:06:18.677Z,1.27
2023-02-26T07:08:47.708Z,1.08
2023-02-26T07:11:16.670Z,1.15
2023-02-26T07:13:43.918Z,1.27
2023-02-26T07:16:12.631Z,1.60
2023-02-26T07:18:39.975Z,1.25
2023-02-26T07:21:07.772Z,1.38
2023-02-26T07:23:35.453Z,1.00
2023-02-26T07:26:03.256Z,2.05
2023-02-26T07:28:32.245Z,1.20
2023-02-26T07:30:59.594Z,0.82
2023-02-26T07:33:28.546Z,1.50
2023-02-26T07:35:56.003Z,1.85
2023-02-26T07:38:23.614Z,1.35
2023-02-26T07:40:51.279Z,1.38
2023-02-26T07:43:18.698Z,1.23
2023-02-26T07:45:50.352Z,0.88
2023-02-26T07:48:17.815Z,1.10
2023-02-26T07:50:45.128Z,0.60
2023-02-26T07:53:12.643Z,1.10
2023-02-26T07:55:39.844Z,1.00
2023-02-26T07:58:07.093Z,0.60
2023-02-26T08:00:34.502Z,0.95
2023-02-26T08:03:03.318Z,0.90
2023-02-26T08:05:30.664Z,0.45
2023-02-26T08:07:58.064Z,0.45
2023-02-26T08:10:31.660Z,0.80
2023-02-26T08:13:16.752Z,0.95
2023-02-26T08:15:44.575Z,0.30
2023-02-26T08:18:38.766Z,0.50
2023-02-26T08:21:16.330Z,1.08
2023-02-26T08:23:43.599Z,1.25
2023-02-26T08:26:17.472Z,0.82
2023-02-26T08:28:48.436Z,0.88
2023-02-26T08:31:20.031Z,0.52
2023-02-26T08:33:48.851Z,0.85
2023-02-26T08:36:16.399Z,0.63
2023-02-26T08:38:43.751Z,0.95
2023-02-26T08:41:11.154Z,0.47
2023-02-26T08:43:42.282Z,0.50
2023-02-26T08:46:22.488Z,0.68
2023-02-26T08:48:53.412Z,0.28
2023-02-26T08:51:21.140Z,0.60
2023-02-26T08:53:57.661Z,0.43
2023-02-26T08:56:25.628Z,0.80
2023-02-26T08:59:02.326Z,0.40
2023-02-26T09:01:30.296Z,0.43
2023-02-26T09:04:03.406Z,0.50
2023-02-26T09:06:33.442Z,0.17
2023-02-26T09:09:16.951Z,0.50
2023-02-26T09:12:04.680Z,0.70
2023-02-26T09:14:35.026Z,0.50
2023-02-26T09:17:05.635Z,0.57
2023-02-26T09:19:34.519Z,0.63
2023-02-26T09:22:10.959Z,0.43
2023-02-26T09:24:38.453Z,0.00
2023-02-26T09:27:05.807Z,0.68
2023-02-26T09:29:33.286Z,0.52
2023-02-26T09:32:02.083Z,0.30
2023-02-26T09:34:29.466Z,0.88
2023-02-26T09:36:58.196Z,0.47
2023-02-26T09:39:25.532Z,0.47
2023-02-26T09:41:56.599Z,0.85
2023-02-26T09:44:27.428Z,0.65
2023-02-26T09:47:00.785Z,0.40
2023-02-26T09:49:35.663Z,0.60
2023-02-26T09:52:14.468Z,0.70
2023-02-26T09:54:46.480Z,0.10
2023-02-26T09:57:20.574Z,0.45
2023-02-26T09:59:48.241Z,0.40
2023-02-26T10:02:22.734Z,0.70
2023-02-26T10:04:58.926Z,0.28
2023-02-26T10:07:38.272Z,0.60
2023-02-26T10:12:45.500Z,0.57
2023-02-26T10:15:21.644Z,0.30
2023-02-26T10:18:02.893Z,0.52
2023-02-26T10:20:37.016Z,0.50
2023-02-26T10:23:16.642Z,0.75
2023-02-26T10:25:48.362Z,0.63
2023-02-26T10:28:44.685Z,0.35
2023-02-26T10:31:25.100Z,0.80
2023-02-26T10:34:12.574Z,0.40
2023-02-26T10:36:48.808Z,0.50
2023-02-26T10:39:31.619Z,0.73
2023-02-26T10:42:10.007Z,0.40
2023-02-26T10:44:45.921Z,0.40
2023-02-26T10:47:21.237Z,0.40
2023-02-26T10:49:56.838Z,0.47
2023-02-26T10:52:34.125Z,0.88
2023-02-26T10:55:20.785Z,0.60
2023-02-26T10:57:55.154Z,0.75
2023-02-26T11:00:23.063Z,0.40
2023-02-26T11:02:58.900Z,0.50
2023-02-26T11:05:34.700Z,0.90
2023-02-26T11:08:04.843Z,1.15
2023-02-26T11:10:49.400Z,1.05
2023-02-26T11:13:22.228Z,0.28
2023-02-26T11:15:52.704Z,1.25
2023-02-26T11:18:25.053Z,0.30
2023-02-26T11:20:56.810Z,0.50
2023-02-26T11:23:28.033Z,0.73
2023-02-26T11:26:02.621Z,0.80
2023-02-26T11:28:36.562Z,0.47
2023-02-26T11:31:07.017Z,0.77
2023-02-26T11:33:37.837Z,0.77
2023-02-26T11:36:10.156Z,0.50
2023-02-26T11:38:37.760Z,1.23
2023-02-26T11:41:07.312Z,0.60
2023-02-26T11:43:40.857Z,0.68
2023-02-26T11:46:11.149Z,0.70
2023-02-26T11:48:42.055Z,0.70
2023-02-26T11:51:14.438Z,0.60
2023-02-26T11:53:44.295Z,0.68
2023-02-26T11:56:15.988Z,0.70
2023-02-26T11:58:45.550Z,0.43
2023-02-26T12:01:17.176Z,0.70
2023-02-26T12:03:47.296Z,0.28
2023-02-26T12:06:17.450Z,0.32
2023-02-26T12:08:45.139Z,0.70
2023-02-26T12:11:34.406Z,0.45
2023-02-26T12:14:13.104Z,0.70
2023-02-26T12:16:52.536Z,0.52
2023-02-26T12:22:15.348Z,0.70
2023-02-26T12:25:22.940Z,0.70
2023-02-26T12:28:10.377Z,0.80
2023-02-26T12:30:58.607Z,0.40
2023-02-26T12:33:39.246Z,1.23
2023-02-26T12:36:21.962Z,0.45
2023-02-26T12:38:59.493Z,0.40
2023-02-26T12:41:52.402Z,0.68
2023-02-26T12:44:45.588Z,0.45
2023-02-26T12:47:33.918Z,1.42
2023-02-26T12:50:20.004Z,0.65
2023-02-26T12:55:39.804Z,0.55
2023-02-26T12:58:40.982Z,0.45
2023-02-26T13:01:47.150Z,1.40
2023-02-26T13:04:43.874Z,0.90
2023-02-26T13:07:42.352Z,1.23
2023-02-26T13:10:15.928Z,0.65
2023-02-26T13:12:53.786Z,0.30
2023-02-26T13:15:48.691Z,1.27
2023-02-26T13:18:23.512Z,0.28
2023-02-26T13:21:00.517Z,0.77
2023-02-26T13:23:39.579Z,0.88
2023-02-26T13:26:09.541Z,0.50
2023-02-26T13:28:42.079Z,0.50
2023-02-26T13:31:13.814Z,1.02
2023-02-26T13:33:44.649Z,0.98
2023-02-26T13:36:12.368Z,1.20
2023-02-26T13:38:49.853Z,2.15
2023-02-26T13:41:22.686Z,1.98
2023-02-26T13:46:50.969Z,0.57
2023-02-26T13:49:23.937Z,1.65
2023-02-26T13:51:54.090Z,1.83
2023-02-26T13:54:41.750Z,1.95
2023-02-26T13:57:25.939Z,0.85
2023-02-26T13:59:59.147Z,1.23
2023-02-26T14:02:44.346Z,2.45
2023-02-26T14:05:34.325Z,1.75
2023-02-26T14:08:25.765Z,1.05
2023-02-26T14:11:02.670Z,1.48
2023-02-26T14:13:37.179Z,1.80
2023-02-26T14:16:12.846Z,1.77
2023-02-26T14:18:50.365Z,3.08
2023-02-26T14:21:48.451Z,1.70
2023-02-26T14:24:19.859Z,2.00
2023-02-26T14:26:49.699Z,3.03
2023-02-26T14:29:21.896Z,1.88
2023-02-26T14:32:06.081Z,3.28
2023-02-26T14:34:38.193Z,1.40
2023-02-26T14:37:12.870Z,4.00
2023-02-26T14:39:45.706Z,1.33
2023-02-26T14:42:20.425Z,1.27
2023-02-26T14:44:50.670Z,1.30
2023-02-26T14:47:18.593Z,1.77
2023-02-26T14:49:55.799Z,0.90
2023-02-26T14:53:01.170Z,2.90
2023-02-26T14:55:47.949Z,1.85
2023-02-26T14:58:43.004Z,2.38
2023-02-26T15:01:27.878Z,2.45
2023-02-26T15:04:14.288Z,2.42
2023-02-26T15:06:58.950Z,2.30
2023-02-26T15:09:39.031Z,1.88
2023-02-26T15:12:31.278Z,1.77
2023-02-26T15:15:19.429Z,1.90
2023-02-26T15:18:03.971Z,2.95
2023-02-26T15:20:41.707Z,2.10
2023-02-26T15:23:25.554Z,4.70
2023-02-26T15:25:57.372Z,2.40
2023-02-26T15:28:27.944Z,2.50
2023-02-26T15:30:57.235Z,2.63
2023-02-26T15:33:25.936Z,2.90
2023-02-26T15:35:56.059Z,4.43
2023-02-26T15:38:23.935Z,2.92
2023-02-26T15:40:54.581Z,2.35
2023-02-26T15:43:25.840Z,1.67
2023-02-26T15:45:55.962Z,2.97
2023-02-26T15:48:30.585Z,4.07
2023-02-26T15:51:00.716Z,2.30
2023-02-26T15:53:31.043Z,2.60
2023-02-26T15:56:01.905Z,0.95
2023-02-26T15:58:38.395Z,1.52
2023-02-26T16:01:07.066Z,3.28
2023-02-26T16:03:37.522Z,1.95
2023-02-26T16:06:11.223Z,3.90
2023-02-26T16:08:41.741Z,2.72
2023-02-26T16:11:10.617Z,4.43
2023-02-26T16:13:43.459Z,5.38
2023-02-26T16:16:16.001Z,2.80
2023-02-26T16:18:45.287Z,0.77
2023-02-26T16:21:29.395Z,1.25
2023-02-26T16:23:59.145Z,1.85
2023-02-26T16:26:30.033Z,2.00
2023-02-26T16:29:02.641Z,2.45
2023-02-26T16:31:33.787Z,4.22
2023-02-26T16:34:02.998Z,3.80
2023-02-26T16:36:33.498Z,1.65
2023-02-26T16:39:11.858Z,2.97
2023-02-26T16:41:41.171Z,1.80
2023-02-26T16:44:38.529Z,2.22
2023-02-26T16:47:09.916Z,1.95
2023-02-26T16:49:40.365Z,0.90
2023-02-26T16:52:18.206Z,2.60
2023-02-26T16:54:55.164Z,2.10
2023-02-26T16:57:26.522Z,2.72
2023-02-26T16:59:58.215Z,3.17
2023-02-26T17:02:29.563Z,3.60
2023-02-26T17:05:01.539Z,1.77
2023-02-26T17:07:33.848Z,2.30
2023-02-26T17:10:08.063Z,2.97
2023-02-26T17:12:44.626Z,2.45
2023-02-26T17:15:19.175Z,2.08
2023-02-26T17:17:46.999Z,1.17
2023-02-26T17:20:14.659Z,1.13
2023-02-26T17:22:45.030Z,1.90
2023-02-26T17:25:18.426Z,1.20
2023-02-26T17:27:47.573Z,2.15
2023-02-26T17:30:19.817Z,2.17
2023-02-26T17:32:47.573Z,1.27
2023-02-26T17:35:17.064Z,2.65
2023-02-26T17:37:47.250Z,2.83
2023-02-26T17:40:20.608Z,1.90
2023-02-26T17:42:48.479Z,1.58
2023-02-26T17:45:18.068Z,2.53
2023-02-26T17:47:47.562Z,1.15
2023-02-26T17:50:30.330Z,1.75
2023-02-26T17:52:58.041Z,2.33
2023-02-26T17:55:25.488Z,0.80
2023-02-26T17:57:52.847Z,2.15
2023-02-26T18:00:21.911Z,0.43
2023-02-26T18:02:50.707Z,3.17
2023-02-26T18:05:19.355Z,1.48
2023-02-26T18:07:47.937Z,1.13
2023-02-26T18:10:18.899Z,2.08
2023-02-26T18:12:49.476Z,0.75
2023-02-26T18:15:21.415Z,2.08
2023-02-26T18:17:49.475Z,2.95
2023-02-26T18:20:22.938Z,1.52
2023-02-26T18:22:50.624Z,3.08
2023-02-26T18:25:18.628Z,1.77
2023-02-26T18:27:51.176Z,3.60
2023-02-26T18:30:24.559Z,2.60
2023-02-26T18:32:52.368Z,2.30
2023-02-26T18:35:19.665Z,0.80
2023-02-26T18:37:52.028Z,2.15
2023-02-26T18:40:22.395Z,2.35
2023-02-26T18:42:50.130Z,2.55
2023-02-26T18:45:19.195Z,3.17
2023-02-26T18:47:48.717Z,0.95
2023-02-26T18:50:17.875Z,2.45
2023-02-26T18:52:45.354Z,1.48
2023-02-26T18:55:13.559Z,2.28
2023-02-26T18:57:43.605Z,1.48
2023-02-26T19:00:16.340Z,0.82
2023-02-26T19:02:45.571Z,1.45
2023-02-26T19:05:25.924Z,2.05
2023-02-26T19:07:54.449Z,1.67
2023-02-26T19:10:22.285Z,0.65
2023-02-26T19:12:51.051Z,0.80
2023-02-26T19:15:18.961Z,0.70
2023-02-26T19:17:46.317Z,0.73
2023-02-26T19:20:15.062Z,0.73
2023-02-26T19:22:43.461Z,1.42
2023-02-26T19:25:11.677Z,1.00
2023-02-26T19:27:40.377Z,1.67
2023-02-26T19:30:09.360Z,1.45
2023-02-26T19:32:39.032Z,1.13
2023-02-26T19:35:07.992Z,1.50
2023-02-26T19:37:39.436Z,1.58
2023-02-26T19:40:10.439Z,1.08
2023-02-26T19:42:37.858Z,1.05
2023-02-26T19:45:06.058Z,1.40
2023-02-26T19:47:33.340Z,1.55
2023-02-26T19:50:00.953Z,2.30
2023-02-26T19:52:31.425Z,1.38
2023-02-26T19:55:00.412Z,1.05
2023-02-26T19:57:28.305Z,1.58
2023-02-26T19:59:55.950Z,0.85
2023-02-26T20:02:23.452Z,1.40
2023-02-26T20:04:50.725Z,2.25
2023-02-26T20:07:18.471Z,1.50
2023-02-26T20:09:46.761Z,0.93
2023-02-26T20:12:16.475Z,1.52
2023-02-26T20:14:46.954Z,1.08
2023-02-26T20:17:14.429Z,1.70
2023-02-26T20:19:41.958Z,1.92
2023-02-26T20:22:09.461Z,2.53
2023-02-26T20:24:39.891Z,2.80
2023-02-26T20:27:07.501Z,1.80
2023-02-26T20:29:36.435Z,1.15
2023-02-26T20:32:07.817Z,1.38
2023-02-26T20:34:41.287Z,0.95
2023-02-26T20:37:08.998Z,1.08
2023-02-26T20:39:36.488Z,2.28
2023-02-26T20:42:05.363Z,1.63
2023-02-26T20:44:32.867Z,1.00
2023-02-26T20:47:02.694Z,0.75
2023-02-26T20:49:30.467Z,1.30
2023-02-26T20:51:57.945Z,0.70
2023-02-26T20:54:25.508Z,0.63
2023-02-26T20:56:52.820Z,1.13
2023-02-26T20:59:20.867Z,2.03
2023-02-26T21:01:48.755Z,2.10
2023-02-26T21:04:18.205Z,1.42
2023-02-26T21:06:45.884Z,1.27
2023-02-26T21:09:13.720Z,1.27
2023-02-26T21:11:41.860Z,2.35
2023-02-26T21:14:10.385Z,1.55
2023-02-26T21:16:39.967Z,0.57
2023-02-26T21:19:07.619Z,2.20
2023-02-26T21:21:36.662Z,1.08
2023-02-26T21:24:04.565Z,1.77
2023-02-26T21:26:34.240Z,0.35
2023-02-26T21:29:02.845Z,1.83
2023-02-26T21:31:30.406Z,2.22
2023-02-26T21:33:58.498Z,0.73
2023-02-26T21:36:27.479Z,1.08
2023-02-26T21:38:56.235Z,1.15
2023-02-26T21:41:23.417Z,1.20
2023-02-26T21:43:50.928Z,3.13
2023-02-26T21:46:18.196Z,2.17
2023-02-26T21:48:50.337Z,0.75
2023-02-26T21:51:18.000Z,0.32
2023-02-26T21:53:47.439Z,1.83
2023-02-26T21:56:16.501Z,1.95
2023-02-26T21:58:43.763Z,1.30
2023-02-26T22:01:11.130Z,1.42
2023-02-26T22:03:38.722Z,1.50
2023-02-26T22:06:06.815Z,1.15
2023-02-26T22:08:34.505Z,0.80
2023-02-26T22:11:02.206Z,1.55
2023-02-26T22:13:30.985Z,1.45
2023-02-26T22:15:58.244Z,0.93
2023-02-26T22:18:25.651Z,1.30
2023-02-26T22:20:53.461Z,1.98
2023-02-26T22:23:20.897Z,0.95
2023-02-26T22:25:48.351Z,0.93
2023-02-26T22:28:15.680Z,0.77
2023-02-26T22:30:44.578Z,0.65
2023-02-26T22:33:12.009Z,0.75
2023-02-26T22:35:39.509Z,1.88
2023-02-26T22:38:06.787Z,1.35
2023-02-26T22:40:34.407Z,0.13
2023-02-26T22:43:01.866Z,0.45
2023-02-26T22:45:29.369Z,1.50
2023-02-26T22:47:58.096Z,0.80
2023-02-26T22:50:25.870Z,1.50
2023-02-26T22:52:53.307Z,0.52
2023-02-26T22:55:20.908Z,1.20
2023-02-26T22:57:48.238Z,0.88
2023-02-26T23:00:21.056Z,1.35
2023-02-26T23:02:49.713Z,1.30
2023-02-26T23:05:20.226Z,1.00
2023-02-26T23:07:47.821Z,1.10
2023-02-26T23:10:18.369Z,0.85
2023-02-26T23:12:47.148Z,0.43
2023-02-26T23:15:14.813Z,1.27
2023-02-26T23:17:42.828Z,0.65
2023-02-26T23:20:14.032Z,2.28
2023-02-26T23:22:43.935Z,1.35
2023-02-26T23:25:12.352Z,0.80
2023-02-26T23:27:40.168Z,2.30
2023-02-26T23:30:09.092Z,1.30
2023-02-26T23:32:36.865Z,0.20
2023-02-26T23:35:04.961Z,0.60
2023-02-26T23:37:32.558Z,2.17
2023-02-26T23:40:01.538Z,0.77
2023-02-26T23:42:31.156Z,1.63
2023-02-26T23:44:58.671Z,1.20
2023-02-26T23:47:26.696Z,1.20
2023-02-26T23:49:54.208Z,0.90
2023-02-26T23:52:21.844Z,0.47
2023-02-26T23:54:49.406Z,1.52
2023-02-26T23:57:18.397Z,1.60
2023-02-26T23:59:45.977Z,1.00
